THUNDERSTORM

Not for real navigation. The accuracy of this data is not assured See disclaimer for more information



ICAO NAME COUNTRY WIND Kt GUST Kt VIS m TEMP/DEW C BARO METAR
KQEQ 1 0 1200 20/19 29.81 KQEQ 262140Z AUTO 31001KT 1200 BR BKN007 20/19 A2981 RMK A02 TS
PAYA YAKUTAT AIRPORT AK United States 11 18 1600 11/10 29.59 PAYA 262050Z AUTO 08011G18KT 1SM -RA BR VV009 11/10 A2959 RMK TS ZAN
KQFU 1 0 1600 20/19 29.82 KQFU 262140Z AUTO 06001KT 1600 BR SCT032 SCT150 20/19 A2982 RMK A02 TS
PAPB ST. GEORGE AIRPORT AK United States 11 0 1600 8/8 29.89 PAPB 262140Z AUTO 36011KT 1SM BR OVC005 08/08 A2989 RMK AO2 T00780078 TS
PAKW Klawock, Klawock Airport AK United States 8 0 1600 15/13 29.92 PAKW 262142Z AUTO 15008KT 1 0.25SM +RA BR OVC026 15/13 A2992 RMK AO2 P0029 T01500133 TS

Show more